createdAt,value
2019-03-25T00:01:35.723Z,9.67
2019-03-25T00:04:06.203Z,8.13
2019-03-25T00:06:36.533Z,9.17
2019-03-25T00:09:08.176Z,7.17
2019-03-25T00:11:38.480Z,11.90
2019-03-25T00:14:08.795Z,5.00
2019-03-25T00:16:39.092Z,7.53
2019-03-25T00:19:09.897Z,7.92
2019-03-25T00:21:40.136Z,10.80
2019-03-25T00:24:10.456Z,6.87
2019-03-25T00:26:40.788Z,7.20
2019-03-25T00:29:11.096Z,10.27
2019-03-25T00:31:41.347Z,7.93
2019-03-25T00:34:11.828Z,8.10
2019-03-25T00:36:42.232Z,7.77
2019-03-25T00:39:12.521Z,7.23
2019-03-25T00:41:42.834Z,7.70
2019-03-25T00:44:13.144Z,8.90
2019-03-25T00:46:43.386Z,8.20
2019-03-25T00:49:13.608Z,14.37
2019-03-25T00:51:43.842Z,9.07
2019-03-25T00:54:14.151Z,10.97
2019-03-25T00:56:44.617Z,10.53
2019-03-25T00:59:14.954Z,8.67
2019-03-25T01:01:45.313Z,12.53
2019-03-25T01:04:15.608Z,8.87
2019-03-25T01:06:45.859Z,8.77
2019-03-25T01:09:16.094Z,8.70
2019-03-25T01:11:49.302Z,7.03
2019-03-25T01:14:18.469Z,5.67
2019-03-25T01:16:48.705Z,12.37
2019-03-25T01:19:18.952Z,6.83
2019-03-25T01:21:49.297Z,7.17
2019-03-25T01:24:19.612Z,5.47
2019-03-25T01:26:49.900Z,10.40
2019-03-25T01:29:20.148Z,14.07
2019-03-25T01:31:50.576Z,7.17
2019-03-25T01:34:22.759Z,14.67
2019-03-25T01:36:53.055Z,13.17
2019-03-25T01:39:23.368Z,10.88
2019-03-25T01:41:53.616Z,6.47
2019-03-25T01:44:23.853Z,9.60
2019-03-25T01:46:54.132Z,7.47
2019-03-25T01:49:24.397Z,6.43
2019-03-25T01:51:54.738Z,11.17
2019-03-25T01:54:25.066Z,10.08
2019-03-25T01:56:55.323Z,10.03
2019-03-25T01:59:25.575Z,5.70
2019-03-25T02:01:55.911Z,6.70
2019-03-25T02:04:26.216Z,11.78
2019-03-25T02:06:56.455Z,7.53
2019-03-25T02:09:27.527Z,8.50
2019-03-25T02:11:57.907Z,8.60
2019-03-25T02:14:28.212Z,11.68
2019-03-25T02:16:58.764Z,8.03
2019-03-25T02:19:29.970Z,10.60
2019-03-25T02:22:00.280Z,10.68
2019-03-25T02:24:30.568Z,8.37
2019-03-25T02:27:00.924Z,9.17
2019-03-25T02:29:31.159Z,9.93
2019-03-25T02:32:02.572Z,14.33
2019-03-25T02:34:32.808Z,15.37
2019-03-25T02:37:03.146Z,12.70
2019-03-25T02:39:33.386Z,8.90
2019-03-25T02:42:03.788Z,9.15
2019-03-25T02:44:34.084Z,9.28
2019-03-25T02:47:04.397Z,10.30
2019-03-25T02:49:34.793Z,4.53
2019-03-25T02:52:05.172Z,10.33
2019-03-25T02:54:36.292Z,12.00
2019-03-25T02:57:06.701Z,8.80
2019-03-25T02:59:37.024Z,7.80
2019-03-25T03:02:07.456Z,8.03
2019-03-25T03:04:37.698Z,9.43
2019-03-25T03:07:07.955Z,4.97
2019-03-25T03:09:38.412Z,4.83
2019-03-25T03:12:08.690Z,3.33
2019-03-25T03:14:38.924Z,4.10
2019-03-25T03:17:09.534Z,3.37
2019-03-25T03:19:39.752Z,2.33
2019-03-25T03:22:10.011Z,1.37
2019-03-25T03:24:40.324Z,2.05
2019-03-25T03:27:11.601Z,2.87
2019-03-25T03:30:50.827Z,2.17
2019-03-25T03:33:21.238Z,1.47
2019-03-25T03:35:51.630Z,0.87
2019-03-25T03:38:21.970Z,3.23
2019-03-25T03:40:52.362Z,0.93
2019-03-25T03:43:22.749Z,0.80
2019-03-25T03:45:53.109Z,1.03
2019-03-25T03:48:23.511Z,1.37
2019-03-25T03:50:54.126Z,1.23
2019-03-25T03:53:24.519Z,3.70
2019-03-25T03:55:54.919Z,1.40
2019-03-25T03:58:26.814Z,3.60
2019-03-25T04:00:57.246Z,1.67
2019-03-25T04:03:27.577Z,0.87
2019-03-25T04:05:57.870Z,2.20
2019-03-25T04:08:28.198Z,3.10
2019-03-25T04:10:58.582Z,0.30
2019-03-25T04:13:29.014Z,1.80
2019-03-25T04:16:01.670Z,2.73
2019-03-25T04:18:33.734Z,4.43
2019-03-25T04:21:04.106Z,2.17
2019-03-25T04:23:34.393Z,3.97
2019-03-25T04:26:04.801Z,0.23
2019-03-25T04:28:35.576Z,1.50
2019-03-25T04:31:05.921Z,0.60
2019-03-25T04:33:36.186Z,6.60
2019-03-25T04:36:06.525Z,2.33
2019-03-25T04:38:36.809Z,1.53
2019-03-25T04:41:07.164Z,0.83
2019-03-25T04:43:37.416Z,1.30
2019-03-25T04:46:07.901Z,2.27
2019-03-25T04:48:38.160Z,3.70
2019-03-25T04:51:09.087Z,1.23
2019-03-25T04:53:39.503Z,1.77
2019-03-25T04:56:09.846Z,1.90
2019-03-25T04:58:40.089Z,2.20
2019-03-25T05:01:10.378Z,2.97
2019-03-25T05:03:40.747Z,0.60
2019-03-25T05:06:11.157Z,5.30
2019-03-25T05:08:42.647Z,2.80
2019-03-25T05:11:12.897Z,1.20
2019-03-25T05:13:43.173Z,5.77
2019-03-25T05:16:14.500Z,1.63
2019-03-25T05:18:44.761Z,0.77
2019-03-25T05:21:15.081Z,0.70
2019-03-25T05:23:45.354Z,1.33
2019-03-25T05:26:16.757Z,2.43
2019-03-25T05:28:47.015Z,7.67
2019-03-25T05:31:17.352Z,2.27
2019-03-25T05:33:47.635Z,5.67
2019-03-25T05:36:17.945Z,4.60
2019-03-25T05:38:48.197Z,6.13
2019-03-25T05:41:18.433Z,2.93
2019-03-25T05:43:48.701Z,3.23
2019-03-25T05:46:19.013Z,2.13
2019-03-25T05:48:49.286Z,4.43
2019-03-25T05:51:19.541Z,4.63
2019-03-25T05:53:49.798Z,5.13
2019-03-25T05:56:20.038Z,6.67
2019-03-25T05:58:50.313Z,2.93
2019-03-25T06:01:20.721Z,5.53
2019-03-25T06:03:51.058Z,3.70
2019-03-25T06:06:21.390Z,3.60
2019-03-25T06:08:51.637Z,4.07
2019-03-25T06:11:21.953Z,2.33
2019-03-25T06:13:52.221Z,4.47
2019-03-25T06:16:22.540Z,3.50
2019-03-25T06:18:52.879Z,10.07
2019-03-25T06:21:24.338Z,4.73
2019-03-25T06:23:54.602Z,6.03
2019-03-25T06:26:25.010Z,6.70
2019-03-25T06:28:55.305Z,8.10
2019-03-25T06:31:25.630Z,6.43
2019-03-25T06:33:55.998Z,11.20
2019-03-25T06:36:26.242Z,7.30
2019-03-25T06:38:56.650Z,8.90
2019-03-25T06:41:26.989Z,7.70
2019-03-25T06:43:57.240Z,8.20
2019-03-25T06:46:27.555Z,9.73
2019-03-25T06:49:00.015Z,12.77
2019-03-25T06:51:30.405Z,9.40
2019-03-25T06:54:00.665Z,10.10
2019-03-25T06:56:30.989Z,11.80
2019-03-25T06:59:01.252Z,3.90
2019-03-25T07:01:31.579Z,5.90
2019-03-25T07:04:01.907Z,8.20
2019-03-25T07:06:32.243Z,7.70
2019-03-25T07:09:03.138Z,10.10
2019-03-25T07:11:33.532Z,8.70
2019-03-25T07:14:03.982Z,12.30
2019-03-25T07:16:35.203Z,9.38
2019-03-25T07:19:05.625Z,11.45
2019-03-25T07:21:35.961Z,8.15
2019-03-25T07:24:06.395Z,10.78
2019-03-25T07:26:36.642Z,12.63
2019-03-25T07:29:07.069Z,17.27
2019-03-25T07:31:37.338Z,9.68
2019-03-25T07:34:07.720Z,14.55
2019-03-25T07:36:37.971Z,12.20
2019-03-25T07:39:08.407Z,8.23
2019-03-25T07:41:38.689Z,15.53
2019-03-25T07:44:09.097Z,11.48
2019-03-25T07:46:39.382Z,7.70
2019-03-25T07:49:09.631Z,4.73
2019-03-25T07:51:39.896Z,2.03
2019-03-25T07:54:10.161Z,7.97
2019-03-25T07:56:40.448Z,4.20
2019-03-25T07:59:10.770Z,7.05
2019-03-25T08:01:41.192Z,8.57
2019-03-25T08:04:11.545Z,3.90
2019-03-25T08:06:41.795Z,3.33
2019-03-25T08:09:12.194Z,2.93
2019-03-25T08:11:42.550Z,3.20
2019-03-25T08:14:12.856Z,2.62
2019-03-25T08:16:43.205Z,1.98
2019-03-25T08:19:13.613Z,3.02
2019-03-25T08:21:44.015Z,3.50
2019-03-25T08:24:14.249Z,2.95
2019-03-25T08:26:50.030Z,3.17
2019-03-25T08:29:20.264Z,4.95
2019-03-25T08:31:50.621Z,3.58
2019-03-25T08:34:21.044Z,5.33
2019-03-25T08:36:51.470Z,4.00
2019-03-25T08:39:21.881Z,3.42
2019-03-25T08:41:52.309Z,4.72
2019-03-25T08:44:22.647Z,4.80
2019-03-25T08:46:52.977Z,4.05
2019-03-25T08:49:24.390Z,5.90
2019-03-25T08:51:54.717Z,6.83
2019-03-25T08:54:24.977Z,5.22
2019-03-25T08:56:55.392Z,6.83
2019-03-25T08:59:25.646Z,5.97
2019-03-25T09:01:55.915Z,9.45
2019-03-25T09:04:26.247Z,7.70
2019-03-25T09:06:56.661Z,6.10
2019-03-25T09:09:26.911Z,8.60
2019-03-25T09:11:57.246Z,4.80
2019-03-25T09:14:27.518Z,4.20
2019-03-25T09:17:00.450Z,10.40
2019-03-25T09:19:30.417Z,7.50
2019-03-25T09:22:00.793Z,5.75
2019-03-25T09:24:33.036Z,3.83
2019-03-25T09:27:03.281Z,5.70
2019-03-25T09:29:33.546Z,3.35
2019-03-25T09:32:03.990Z,5.30
2019-03-25T09:34:34.345Z,3.60
2019-03-25T09:37:04.708Z,0.90
2019-03-25T09:39:35.053Z,2.65
2019-03-25T09:42:05.644Z,2.77
2019-03-25T09:44:35.974Z,4.45
2019-03-25T09:47:06.364Z,3.60
2019-03-25T09:49:36.706Z,4.15
2019-03-25T09:52:07.179Z,3.15
2019-03-25T09:54:37.678Z,3.22
2019-03-25T09:57:08.048Z,7.05
2019-03-25T09:59:38.481Z,7.25
2019-03-25T10:02:08.890Z,5.95
2019-03-25T10:04:39.270Z,7.85
2019-03-25T10:07:14.225Z,2.58
2019-03-25T10:09:44.493Z,4.40
2019-03-25T10:12:14.751Z,5.10
2019-03-25T10:14:45.041Z,8.53
2019-03-25T10:17:15.365Z,5.37
2019-03-25T10:19:45.705Z,4.65
2019-03-25T10:22:15.949Z,3.33
2019-03-25T10:24:46.236Z,5.45
2019-03-25T10:27:16.487Z,5.53
2019-03-25T10:29:46.889Z,4.75
2019-03-25T10:32:17.225Z,7.62
2019-03-25T10:34:47.590Z,6.30
2019-03-25T10:37:18.653Z,5.30
2019-03-25T10:39:48.953Z,3.02
2019-03-25T10:42:19.200Z,3.45
2019-03-25T10:44:49.545Z,6.60
2019-03-25T10:47:19.861Z,5.05
2019-03-25T10:49:50.167Z,2.37
2019-03-25T10:52:21.480Z,6.60
2019-03-25T10:54:51.952Z,4.95
2019-03-25T10:57:22.205Z,4.17
2019-03-25T10:59:52.622Z,4.40
2019-03-25T11:02:22.940Z,6.22
2019-03-25T11:04:53.360Z,7.37
2019-03-25T11:07:23.787Z,5.20
2019-03-25T11:09:54.309Z,4.20
2019-03-25T11:12:24.620Z,6.55
2019-03-25T11:14:54.885Z,2.12
2019-03-25T11:17:25.140Z,0.90
2019-03-25T11:19:55.506Z,1.75
2019-03-25T11:22:25.748Z,0.82
2019-03-25T11:24:56.099Z,1.17
2019-03-25T11:27:26.504Z,4.00
2019-03-25T11:29:56.857Z,1.52
2019-03-25T11:32:27.088Z,2.33
2019-03-25T11:34:57.449Z,2.67
2019-03-25T11:37:28.873Z,2.35
2019-03-25T11:39:59.414Z,4.67
2019-03-25T11:42:29.739Z,5.67
2019-03-25T11:45:00.185Z,3.77
2019-03-25T11:47:30.658Z,7.90
2019-03-25T11:50:01.093Z,3.90
2019-03-25T11:52:31.588Z,5.55
2019-03-25T11:55:02.117Z,6.12
2019-03-25T11:57:32.642Z,4.42
2019-03-25T12:00:03.269Z,3.08
2019-03-25T12:02:33.684Z,6.35
2019-03-25T12:05:04.722Z,4.30
2019-03-25T12:07:35.241Z,8.40
2019-03-25T12:10:05.913Z,7.58
2019-03-25T12:12:36.295Z,8.00
2019-03-25T12:15:07.336Z,5.65
2019-03-25T12:17:37.672Z,4.83
2019-03-25T12:20:08.313Z,5.85
2019-03-25T12:22:38.693Z,5.30
2019-03-25T12:25:09.657Z,3.87
2019-03-25T12:27:39.984Z,5.62
2019-03-25T12:30:10.811Z,4.05
2019-03-25T12:32:41.297Z,3.08
2019-03-25T12:35:11.735Z,12.00
2019-03-25T12:37:41.974Z,10.00
2019-03-25T12:40:12.726Z,4.40
2019-03-25T12:42:42.991Z,3.25
2019-03-25T12:45:13.601Z,5.30
2019-03-25T12:47:43.925Z,6.08
2019-03-25T12:50:14.459Z,2.92
2019-03-25T12:52:44.906Z,2.10
2019-03-25T12:55:15.304Z,1.82
2019-03-25T12:57:45.647Z,4.85
2019-03-25T13:00:17.729Z,6.03
2019-03-25T13:02:47.978Z,3.35
2019-03-25T13:05:18.392Z,5.35
2019-03-25T13:07:48.823Z,5.03
2019-03-25T13:10:19.143Z,2.45
2019-03-25T13:12:49.489Z,1.60
2019-03-25T13:15:19.200Z,5.80
2019-03-25T13:17:49.470Z,3.40
2019-03-25T13:20:19.790Z,6.03
2019-03-25T13:22:50.116Z,5.40
2019-03-25T13:25:20.356Z,3.98
2019-03-25T13:27:50.708Z,4.78
2019-03-25T13:30:21.156Z,6.55
2019-03-25T13:32:51.505Z,6.65
2019-03-25T13:35:21.798Z,2.83
2019-03-25T13:37:52.064Z,3.80
2019-03-25T13:40:22.474Z,5.78
2019-03-25T13:42:52.742Z,5.25
2019-03-25T13:45:23.217Z,6.42
2019-03-25T13:47:53.499Z,5.80
2019-03-25T13:50:23.829Z,6.60
2019-03-25T13:52:54.098Z,3.08
2019-03-25T13:55:26.650Z,4.47
2019-03-25T13:57:56.705Z,5.33
2019-03-25T14:00:38.224Z,5.42
2019-03-25T14:03:08.657Z,2.37
2019-03-25T14:05:39.534Z,1.60
2019-03-25T14:08:09.959Z,0.47
2019-03-25T14:10:40.277Z,1.37
2019-03-25T14:13:10.543Z,1.80
2019-03-25T14:15:40.878Z,2.92
2019-03-25T14:18:11.224Z,2.83
2019-03-25T14:20:41.484Z,9.10
2019-03-25T14:23:11.808Z,9.93
2019-03-25T14:25:42.121Z,21.95
2019-03-25T14:28:12.389Z,13.50
2019-03-25T14:30:42.833Z,7.92
2019-03-25T14:33:13.236Z,4.78
2019-03-25T14:35:43.593Z,5.17
2019-03-25T14:38:14.002Z,7.95
2019-03-25T14:40:44.426Z,9.93
2019-03-25T14:43:14.675Z,4.67
2019-03-25T14:45:45.081Z,8.08
2019-03-25T14:48:15.412Z,5.00
2019-03-25T14:50:45.812Z,3.20
2019-03-25T14:53:16.132Z,3.30
2019-03-25T14:55:46.482Z,2.40
2019-03-25T14:58:16.733Z,4.78
2019-03-25T15:00:47.078Z,2.90
2019-03-25T15:03:17.407Z,4.75
2019-03-25T15:05:48.820Z,2.33
2019-03-25T15:08:19.212Z,3.42
2019-03-25T15:10:53.712Z,6.28
2019-03-25T15:13:40.446Z,5.03
2019-03-25T15:16:10.797Z,5.85
2019-03-25T15:18:41.129Z,5.50
2019-03-25T15:21:11.417Z,3.72
2019-03-25T15:23:41.653Z,4.12
2019-03-25T15:26:11.989Z,3.47
2019-03-25T15:28:42.230Z,4.62
2019-03-25T15:31:12.517Z,4.95
2019-03-25T15:33:42.868Z,3.93
2019-03-25T15:36:13.302Z,3.77
2019-03-25T15:38:43.628Z,5.12
2019-03-25T15:41:14.038Z,3.80
2019-03-25T15:43:44.287Z,5.75
2019-03-25T15:46:14.633Z,7.67
2019-03-25T15:48:44.877Z,6.00
2019-03-25T15:51:15.209Z,6.53
2019-03-25T15:53:45.462Z,3.92
2019-03-25T15:56:15.752Z,4.90
2019-03-25T15:58:46.082Z,4.53
2019-03-25T16:01:16.352Z,4.20
2019-03-25T16:03:46.700Z,8.67
2019-03-25T16:06:17.193Z,7.90
2019-03-25T16:08:47.446Z,5.12
2019-03-25T16:11:17.737Z,8.50
2019-03-25T16:13:48.142Z,9.50
2019-03-25T16:16:18.477Z,7.85
2019-03-25T16:18:48.793Z,7.05
2019-03-25T16:21:19.200Z,3.75
2019-03-25T16:23:49.438Z,7.27
2019-03-25T16:26:19.696Z,5.42
2019-03-25T16:28:50.017Z,7.55
2019-03-25T16:31:20.281Z,6.12
2019-03-25T16:33:50.621Z,5.03
2019-03-25T16:36:20.949Z,3.20
2019-03-25T16:38:51.286Z,5.03
2019-03-25T16:41:21.632Z,8.27
2019-03-25T16:43:51.870Z,8.13
2019-03-25T16:46:22.146Z,5.78
2019-03-25T16:48:54.974Z,6.33
2019-03-25T16:51:24.498Z,3.67
2019-03-25T16:53:54.765Z,7.72
2019-03-25T16:56:25.222Z,3.40
2019-03-25T16:58:55.469Z,4.77
2019-03-25T17:01:27.776Z,5.45
2019-03-25T17:03:58.103Z,7.35
2019-03-25T17:06:28.349Z,2.87
2019-03-25T17:08:58.826Z,5.90
2019-03-25T17:11:29.147Z,6.08
2019-03-25T17:13:59.569Z,10.68
2019-03-25T17:16:29.817Z,2.80
2019-03-25T17:19:02.076Z,1.20
2019-03-25T17:21:32.045Z,7.67
2019-03-25T17:24:02.549Z,3.52
2019-03-25T17:26:41.924Z,2.98
2019-03-25T17:29:04.833Z,3.08
2019-03-25T17:31:35.079Z,2.35
2019-03-25T17:34:05.529Z,2.92
2019-03-25T17:36:35.842Z,2.62
2019-03-25T17:39:09.185Z,4.97
2019-03-25T17:41:39.435Z,4.50
2019-03-25T17:44:09.704Z,4.67
2019-03-25T17:46:40.094Z,5.30
2019-03-25T17:49:10.362Z,11.87
2019-03-25T17:51:40.620Z,7.30
2019-03-25T17:54:10.958Z,3.42
2019-03-25T17:56:41.285Z,5.53
2019-03-25T17:59:11.583Z,4.97
2019-03-25T18:01:42.057Z,5.10
2019-03-25T18:04:12.576Z,4.90
2019-03-25T18:06:42.961Z,3.73
2019-03-25T18:09:13.226Z,6.47
2019-03-25T18:11:43.545Z,3.92
2019-03-25T18:14:13.889Z,2.72
2019-03-25T18:16:44.147Z,5.17
2019-03-25T18:19:14.408Z,2.95
2019-03-25T18:21:44.737Z,3.37
2019-03-25T18:24:15.075Z,5.17
2019-03-25T18:26:45.494Z,7.40
2019-03-25T18:29:17.100Z,5.17
2019-03-25T18:31:48.111Z,5.10
2019-03-25T18:34:18.382Z,2.73
2019-03-25T18:36:48.618Z,5.47
2019-03-25T18:39:21.372Z,3.50
2019-03-25T18:41:52.597Z,5.67
2019-03-25T18:44:22.995Z,3.83
2019-03-25T18:46:53.237Z,6.12
2019-03-25T18:49:23.571Z,4.03
2019-03-25T18:51:53.970Z,12.47
2019-03-25T18:54:24.309Z,4.30
2019-03-25T18:56:54.711Z,6.78
2019-03-25T18:59:25.040Z,6.40
2019-03-25T19:01:55.529Z,5.83
2019-03-25T19:04:27.306Z,6.50
2019-03-25T19:06:57.965Z,4.23
2019-03-25T19:09:28.559Z,7.50
2019-03-25T19:11:58.800Z,6.33
2019-03-25T19:14:29.070Z,11.38
2019-03-25T19:16:59.324Z,11.67
2019-03-25T19:19:29.567Z,8.95
2019-03-25T19:21:59.889Z,6.70
2019-03-25T19:24:30.149Z,7.93
2019-03-25T19:27:00.464Z,7.10
2019-03-25T19:29:30.742Z,9.90
2019-03-25T19:32:06.554Z,8.13
2019-03-25T19:34:34.124Z,9.40
2019-03-25T19:37:04.406Z,5.27
2019-03-25T19:39:34.786Z,7.72
2019-03-25T19:42:05.130Z,6.70
2019-03-25T19:44:35.479Z,9.05
2019-03-25T19:47:05.888Z,6.00
2019-03-25T19:49:36.128Z,6.75
2019-03-25T19:52:09.236Z,9.53
2019-03-25T19:54:38.602Z,5.03
2019-03-25T19:57:08.996Z,7.40
2019-03-25T19:59:39.263Z,6.90
2019-03-25T20:02:18.962Z,10.73
2019-03-25T20:04:42.652Z,8.17
2019-03-25T20:07:12.987Z,6.13
2019-03-25T20:09:44.503Z,8.03
2019-03-25T20:12:14.763Z,8.13
2019-03-25T20:14:45.138Z,5.10
2019-03-25T20:17:15.564Z,9.90
2019-03-25T20:19:45.892Z,3.40
2019-03-25T20:22:16.347Z,8.53
2019-03-25T20:24:46.768Z,4.27
2019-03-25T20:27:17.250Z,7.80
2019-03-25T20:29:47.576Z,10.58
2019-03-25T20:32:18.050Z,7.58
2019-03-25T20:34:49.653Z,9.63
2019-03-25T20:37:20.054Z,11.48
2019-03-25T20:39:50.560Z,6.30
2019-03-25T20:42:20.969Z,7.57
2019-03-25T20:44:51.461Z,14.23
2019-03-25T20:47:21.887Z,9.73
2019-03-25T20:49:52.122Z,7.07
2019-03-25T20:52:24.503Z,6.75
2019-03-25T20:54:54.471Z,8.65
2019-03-25T20:57:24.887Z,10.70
2019-03-25T20:59:55.161Z,7.53
2019-03-25T21:02:25.669Z,6.33
2019-03-25T21:04:57.187Z,10.53
2019-03-25T21:07:27.643Z,8.00
2019-03-25T21:09:57.934Z,8.97
2019-03-25T21:12:28.416Z,9.03
2019-03-25T21:14:58.756Z,21.13
2019-03-25T21:17:29.076Z,6.00
2019-03-25T21:19:59.345Z,9.00
2019-03-25T21:22:29.636Z,7.23
2019-03-25T21:25:00.862Z,8.00
2019-03-25T21:27:31.277Z,10.53
2019-03-25T21:30:01.668Z,9.30
2019-03-25T21:32:33.097Z,7.30
2019-03-25T21:35:03.655Z,10.37
2019-03-25T21:37:34.124Z,9.35
2019-03-25T21:40:04.998Z,13.55
2019-03-25T21:42:35.357Z,7.25
2019-03-25T21:45:06.054Z,7.80
2019-03-25T21:47:36.678Z,7.83
2019-03-25T21:50:08.446Z,11.33
2019-03-25T21:52:38.861Z,10.80
2019-03-25T21:55:09.350Z,15.35
2019-03-25T21:57:39.809Z,10.55
2019-03-25T22:00:10.901Z,9.33
2019-03-25T22:02:41.408Z,8.37
2019-03-25T22:05:11.909Z,17.63
2019-03-25T22:07:42.470Z,6.87
2019-03-25T22:10:13.436Z,15.38
2019-03-25T22:12:43.701Z,10.98
2019-03-25T22:15:14.425Z,12.50
2019-03-25T22:17:44.704Z,14.98
2019-03-25T22:20:15.220Z,13.80
2019-03-25T22:22:45.649Z,12.90
2019-03-25T22:25:16.236Z,6.22
2019-03-25T22:27:46.669Z,16.00
2019-03-25T22:30:17.002Z,9.25
2019-03-25T22:32:47.470Z,8.57
2019-03-25T22:35:17.914Z,10.83
2019-03-25T22:37:48.185Z,12.27
2019-03-25T22:40:18.638Z,8.15
2019-03-25T22:42:49.301Z,7.53
2019-03-25T22:45:29.566Z,9.23
2019-03-25T22:48:02.397Z,10.57
2019-03-25T22:50:34.753Z,12.03
2019-03-25T22:53:05.241Z,10.67
2019-03-25T22:55:35.722Z,14.43
2019-03-25T22:58:06.350Z,18.35
2019-03-25T23:00:47.115Z,10.95
2019-03-25T23:03:17.740Z,17.35
2019-03-25T23:05:48.270Z,14.10
2019-03-25T23:08:18.613Z,11.07
2019-03-25T23:10:48.954Z,10.33
2019-03-25T23:13:19.413Z,16.33
2019-03-25T23:15:49.720Z,11.18
2019-03-25T23:18:20.129Z,11.90
2019-03-25T23:20:50.493Z,13.40
2019-03-25T23:23:20.821Z,21.00
2019-03-25T23:25:51.299Z,14.70
2019-03-25T23:28:21.626Z,12.60
2019-03-25T23:30:51.977Z,14.27
2019-03-25T23:33:22.321Z,10.47
2019-03-25T23:35:52.746Z,13.95
2019-03-25T23:38:23.070Z,12.58
2019-03-25T23:40:53.445Z,13.45
2019-03-25T23:43:23.689Z,10.68
2019-03-25T23:45:54.062Z,12.93
2019-03-25T23:48:24.326Z,15.03
2019-03-25T23:50:54.667Z,5.47
2019-03-25T23:53:24.934Z,9.77
2019-03-25T23:55:55.260Z,12.60
2019-03-25T23:58:25.517Z,12.10
